Emerald Princess — ZCDP8 — position and weather

sailwx.info

Track history (hours):
 
Tides and Currents Weather Stations Pressure Air Temp Water Temp Dewpoint Dewpoint Depression Visibility Wind Speed Wind Dir Waves Ship Positions

Emerald Princess

Last reported at 2017-Oct-18 07:00 UTC. Time now 2017-Oct-18 09:13 UTC.
Position N 18°48' W 156°18'.

Type: Ship. MMSI: 310531000.

Barometer 1016.1 mb
Air temperature 27.0 ° C
Visibility: greater than 10.8 NM
Dewpoint 19.8 ° C
Water temperature 29.0 ° C

Date/timePositionNaut miles runAvg speedWind from/ knotsBaromVisibWave heightAir tempDewpointWater temp
2017-Oct-18 07:00N 18°48' W 156°18'162 3.5 1016.110.8 27.019.829.0
2017-Oct-16 09:00N 21°06' W 157°48'25 0.6 060 / 321015.910.8 25.520.532.0
2017-Oct-14 13:00N 20°42' W 157°42'14117.7 060 / 261012.410.8 26.023.227.0
2017-Oct-14 05:00N 20°00' W 155°18'62 3.9 120 / 291011.810.8 25.522.027.0
2017-Oct-13 13:00N 20°00' W 154°12'13815.3 140 / 261010.910.8 24.523.827.0
2017-Oct-13 04:00N 20°48' W 151°54'5919.6 100 / 231012.910.8 25.020.727.0
2017-Oct-13 01:00N 21°06' W 150°54'9418.9 090 / 281013.210.8 27.021.327.0
2017-Oct-12 20:00N 21°36' W 149°18'68620.8 090 / 281011.510.8 26.019.920.0
2017-Oct-11 11:00N 25°18' W 137°30'63321.8 080 / 131018.410.8 21.014.723.0
2017-Oct-10 06:00N 28°42' W 126°18'4231.0 330 / 231015.710.8 18.017.222.0
2017-Oct-10 04:38N 29°01' W 125°35'320.9
2017-Oct-10 04:30N 29°01' W 125°32'1020.6
2017-Oct-10 04:00N 29°05' W 125°21'1420.7
2017-Oct-10 03:21N 29°09' W 125°06'2320.6
2017-Oct-10 02:13N 29°17' W 124°41'520.6
2017-Oct-10 01:58N 29°18' W 124°35'1020.6
2017-Oct-10 01:29N 29°22' W 124°24'1320.5
2017-Oct-10 00:51N 29°26' W 124°10'720.4
2017-Oct-10 00:30N 29°28' W 124°02'1020.8
2017-Oct-10 00:00N 29°31' W 123°51'1320.5
2017-Oct-09 23:22N 29°36' W 123°37'1420.7
2017-Oct-09 22:41N 29°40' W 123°21'420.6
2017-Oct-09 22:28N 29°42' W 123°17'1420.5
2017-Oct-09 21:47N 29°46' W 123°01'620.5
2017-Oct-09 21:30N 29°48' W 122°55'1020.6
2017-Oct-09 21:00N 29°51' W 122°44'1420.4
2017-Oct-09 20:19N 29°56' W 122°28'820.5
2017-Oct-09 19:56N 29°58' W 122°20'2020.6
2017-Oct-09 18:58N 30°05' W 121°58'920.5
2017-Oct-09 18:30N 30°08' W 121°48'1620.4
2017-Oct-09 17:43N 30°13' W 121°30'620.3
2017-Oct-09 17:25N 30°15' W 121°24'1720.2
2017-Oct-09 16:35N 30°21' W 121°05'10020.2
2017-Oct-09 11:37N 30°53' W 119°15'820.4
2017-Oct-09 11:14N 30°56' W 119°06'3120.3
2017-Oct-09 09:41N 31°07' W 118°32'420.9
2017-Oct-09 09:30N 31°10' W 118°29'1021.1
2017-Oct-09 09:00N 31°17' W 118°20'1321.1
2017-Oct-09 08:23N 31°27' W 118°10'820.7
2017-Oct-09 08:00N 31°32' W 118°03'1020.8
2017-Oct-09 07:30N 31°40' W 117°55'1220.6
2017-Oct-09 06:57N 31°48' W 117°45'1419.1
2017-Oct-09 06:13N 32°01' W 117°39'619.4
2017-Oct-09 05:56N 32°06' W 117°39'818.0
2017-Oct-09 05:30N 32°14' W 117°39'918.0
2017-Oct-09 05:00N 32°23' W 117°39'918.2
2017-Oct-09 04:31N 32°32' W 117°39'918.8
2017-Oct-09 04:01N 32°41' W 117°43'1020.4
2017-Oct-09 03:31N 32°50' W 117°48'1019.8
2017-Oct-09 03:00N 32°59' W 117°54'1020.5
2017-Oct-09 02:30N 33°08' W 117°60'1019.9
2017-Oct-09 02:01N 33°17' W 118°05'815.9
2017-Oct-09 01:30N 33°24' W 118°08'815.2
2017-Oct-09 01:01N 33°31' W 118°12'713.2
2017-Oct-09 00:31N 33°38' W 118°13'6 9.8
2017-Oct-08 23:57N 33°43' W 118°15'2 5.0
2017-Oct-08 23:30N 33°45' W 118°17'0 0.3
2017-Oct-08 22:56N 33°45' W 118°17'0 0.0
2017-Oct-08 22:28N 33°45' W 118°17'0 0.0
2017-Oct-08 21:58N 33°45' W 118°17'0 0.0
2017-Oct-08 21:26N 33°45' W 118°17'0 0.0
2017-Oct-08 20:56N 33°45' W 118°17'0 0.0
2017-Oct-08 20:29N 33°45' W 118°17'0 0.0
2017-Oct-08 19:58N 33°45' W 118°17'0 0.0
2017-Oct-08 19:25N 33°45' W 118°17'0 0.0
2017-Oct-08 18:58N 33°45' W 118°17'0 0.0
2017-Oct-08 18:22N 33°45' W 118°17'0 0.0
2017-Oct-08 17:58N 33°45' W 118°17'0 0.0
2017-Oct-08 17:30N 33°45' W 118°17'0 0.0
2017-Oct-08 16:54N 33°45' W 118°17'0 0.0
2017-Oct-08 16:30N 33°45' W 118°17'0 0.0
2017-Oct-08 16:00N 33°45' W 118°17'0 0.0
2017-Oct-08 15:29N 33°45' W 118°17'0 0.0
2017-Oct-08 14:59N 33°45' W 118°17'0 0.0
2017-Oct-08 14:29N 33°45' W 118°17'1 2.6
2017-Oct-08 14:00N 33°44' W 118°16'3 6.6
2017-Oct-08 13:30N 33°41' W 118°14'611.2
2017-Oct-08 13:00N 33°36' W 118°11'714.3
2017-Oct-08 12:30N 33°30' W 118°07'815.3
2017-Oct-08 12:00N 33°22' W 118°04'1019.3
2017-Oct-08 11:30N 33°14' W 117°60'1121.5
2017-Oct-08 11:01N 33°04' W 117°54'1121.5
2017-Oct-08 10:31N 32°54' W 117°48'1121.4
2017-Oct-08 10:00N 32°44' W 117°44'1121.4
2017-Oct-08 09:30N 32°34' W 117°39'1020.2
2017-Oct-08 09:01N 32°25' W 117°35'1019.7
2017-Oct-08 08:31N 32°16' W 117°31'1019.5
2017-Oct-08 08:01N 32°07' W 117°27'1019.7
2017-Oct-08 07:30N 31°57' W 117°23'1121.3
2017-Oct-08 07:00N 31°47' W 117°19'  
Track history (hours):
 
Tides and Currents Weather Stations Pressure Air Temp Water Temp Dewpoint Dewpoint Depression Visibility Wind Speed Wind Dir Waves Ship Positions

Emerald Princess

Last reported at 2017-Oct-18 07:00 UTC. Time now 2017-Oct-18 09:13 UTC.
Position N 18°48' W 156°18'.

Type: Ship. MMSI: 310531000.

Barometer 1016.1 mb
Air temperature 27.0 ° C
Visibility: greater than 10.8 NM
Dewpoint 19.8 ° C
Water temperature 29.0 ° C

Date/timePositionNaut miles runAvg speedWind from/ knotsBaromVisibWave heightAir tempDewpointWater temp
2017-Oct-18 07:00N 18°48' W 156°18'162 3.5 1016.110.8 27.019.829.0
2017-Oct-16 09:00N 21°06' W 157°48'25 0.6 060 / 321015.910.8 25.520.532.0
2017-Oct-14 13:00N 20°42' W 157°42'14117.7 060 / 261012.410.8 26.023.227.0
2017-Oct-14 05:00N 20°00' W 155°18'62 3.9 120 / 291011.810.8 25.522.027.0
2017-Oct-13 13:00N 20°00' W 154°12'13815.3 140 / 261010.910.8 24.523.827.0
2017-Oct-13 04:00N 20°48' W 151°54'5919.6 100 / 231012.910.8 25.020.727.0
2017-Oct-13 01:00N 21°06' W 150°54'9418.9 090 / 281013.210.8 27.021.327.0
2017-Oct-12 20:00N 21°36' W 149°18'68620.8 090 / 281011.510.8 26.019.920.0
2017-Oct-11 11:00N 25°18' W 137°30'63321.8 080 / 131018.410.8 21.014.723.0
2017-Oct-10 06:00N 28°42' W 126°18'4231.0 330 / 231015.710.8 18.017.222.0
2017-Oct-10 04:38N 29°01' W 125°35'320.9
2017-Oct-10 04:30N 29°01' W 125°32'1020.6
2017-Oct-10 04:00N 29°05' W 125°21'1420.7
2017-Oct-10 03:21N 29°09' W 125°06'2320.6
2017-Oct-10 02:13N 29°17' W 124°41'520.6
2017-Oct-10 01:58N 29°18' W 124°35'1020.6
2017-Oct-10 01:29N 29°22' W 124°24'1320.5
2017-Oct-10 00:51N 29°26' W 124°10'720.4
2017-Oct-10 00:30N 29°28' W 124°02'1020.8
2017-Oct-10 00:00N 29°31' W 123°51'1320.5
2017-Oct-09 23:22N 29°36' W 123°37'1420.7
2017-Oct-09 22:41N 29°40' W 123°21'420.6
2017-Oct-09 22:28N 29°42' W 123°17'1420.5
2017-Oct-09 21:47N 29°46' W 123°01'620.5
2017-Oct-09 21:30N 29°48' W 122°55'1020.6
2017-Oct-09 21:00N 29°51' W 122°44'1420.4
2017-Oct-09 20:19N 29°56' W 122°28'820.5
2017-Oct-09 19:56N 29°58' W 122°20'2020.6
2017-Oct-09 18:58N 30°05' W 121°58'920.5
2017-Oct-09 18:30N 30°08' W 121°48'1620.4
2017-Oct-09 17:43N 30°13' W 121°30'620.3
2017-Oct-09 17:25N 30°15' W 121°24'1720.2
2017-Oct-09 16:35N 30°21' W 121°05'10020.2
2017-Oct-09 11:37N 30°53' W 119°15'820.4
2017-Oct-09 11:14N 30°56' W 119°06'3120.3
2017-Oct-09 09:41N 31°07' W 118°32'420.9
2017-Oct-09 09:30N 31°10' W 118°29'1021.1
2017-Oct-09 09:00N 31°17' W 118°20'1321.1
2017-Oct-09 08:23N 31°27' W 118°10'820.7
2017-Oct-09 08:00N 31°32' W 118°03'1020.8
2017-Oct-09 07:30N 31°40' W 117°55'1220.6
2017-Oct-09 06:57N 31°48' W 117°45'1419.1
2017-Oct-09 06:13N 32°01' W 117°39'619.4
2017-Oct-09 05:56N 32°06' W 117°39'818.0
2017-Oct-09 05:30N 32°14' W 117°39'918.0
2017-Oct-09 05:00N 32°23' W 117°39'918.2
2017-Oct-09 04:31N 32°32' W 117°39'918.8
2017-Oct-09 04:01N 32°41' W 117°43'1020.4
2017-Oct-09 03:31N 32°50' W 117°48'1019.8
2017-Oct-09 03:00N 32°59' W 117°54'1020.5
2017-Oct-09 02:30N 33°08' W 117°60'1019.9
2017-Oct-09 02:01N 33°17' W 118°05'815.9
2017-Oct-09 01:30N 33°24' W 118°08'815.2
2017-Oct-09 01:01N 33°31' W 118°12'713.2
2017-Oct-09 00:31N 33°38' W 118°13'6 9.8
2017-Oct-08 23:57N 33°43' W 118°15'2 5.0
2017-Oct-08 23:30N 33°45' W 118°17'0 0.3
2017-Oct-08 22:56N 33°45' W 118°17'0 0.0
2017-Oct-08 22:28N 33°45' W 118°17'0 0.0
2017-Oct-08 21:58N 33°45' W 118°17'0 0.0
2017-Oct-08 21:26N 33°45' W 118°17'0 0.0
2017-Oct-08 20:56N 33°45' W 118°17'0 0.0
2017-Oct-08 20:29N 33°45' W 118°17'0 0.0
2017-Oct-08 19:58N 33°45' W 118°17'0 0.0
2017-Oct-08 19:25N 33°45' W 118°17'0 0.0
2017-Oct-08 18:58N 33°45' W 118°17'0 0.0
2017-Oct-08 18:22N 33°45' W 118°17'0 0.0
2017-Oct-08 17:58N 33°45' W 118°17'0 0.0
2017-Oct-08 17:30N 33°45' W 118°17'0 0.0
2017-Oct-08 16:54N 33°45' W 118°17'0 0.0
2017-Oct-08 16:30N 33°45' W 118°17'0 0.0
2017-Oct-08 16:00N 33°45' W 118°17'0 0.0
2017-Oct-08 15:29N 33°45' W 118°17'0 0.0
2017-Oct-08 14:59N 33°45' W 118°17'0 0.0
2017-Oct-08 14:29N 33°45' W 118°17'1 2.6
2017-Oct-08 14:00N 33°44' W 118°16'3 6.6
2017-Oct-08 13:30N 33°41' W 118°14'611.2
2017-Oct-08 13:00N 33°36' W 118°11'714.3
2017-Oct-08 12:30N 33°30' W 118°07'815.3
2017-Oct-08 12:00N 33°22' W 118°04'1019.3
2017-Oct-08 11:30N 33°14' W 117°60'1121.5
2017-Oct-08 11:01N 33°04' W 117°54'1121.5
2017-Oct-08 10:31N 32°54' W 117°48'1121.4
2017-Oct-08 10:00N 32°44' W 117°44'1121.4
2017-Oct-08 09:30N 32°34' W 117°39'1020.2
2017-Oct-08 09:01N 32°25' W 117°35'1019.7
2017-Oct-08 08:31N 32°16' W 117°31'1019.5
2017-Oct-08 08:01N 32°07' W 117°27'1019.7
2017-Oct-08 07:30N 31°57' W 117°23'1121.3
2017-Oct-08 07:00N 31°47' W 117°19'  

Dump ship's entire track history